Flight Track Log - Related Links

Times and Time Zones

All times are in EDT time to prevent confusion due to time zone crossing. See the SWA650 flight status page for this flight to view local times or setup timezone preferences in your user account.

Time Position Orientation Groundspeed Altitude Reporting Facility
EDT Latitude Longitude Course Direction KTS MPH feet Rate Location/Type
Sat 09:12:35 PM 41.7619 -87.6983 174° South 200 230 3,300  Level Chicago Center
Sat 09:13:36 PM 41.6897 -87.7100 187° South 251 289 6,700 3,707 Climbing Chicago Center
Sat 09:14:38 PM 41.6128 -87.7158 183° South 272 313 10,900 3,805 Climbing Chicago Center
Sat 09:15:39 PM 41.5239 -87.7189 181° South 322 371 14,500 3,197 Climbing Chicago Center
Sat 09:16:40 PM 41.4289 -87.7244 183° South 339 390 17,400 2,656 Climbing Chicago Center
Sat 09:17:00 PM 41.0875 -87.7006 174° South  Level FlightAware Approximate
Sat 09:17:41 PM 41.3322 -87.7267 181° South 365 420 19,900  Level Chicago Center
Sat 09:18:42 PM 41.2225 -87.7267 180° South 384 442 23,100 2,976 Climbing Chicago Center
Sat 09:19:44 PM 41.1100 -87.7142 175° South 399 459 26,000 2,634 Climbing Chicago Center
Sat 09:20:45 PM 40.9947 -87.6981 174° South 412 474 28,500 2,311 Climbing Chicago Center
Sat 09:21:46 PM 40.8781 -87.6817 174° South 416 479 30,700 1,918 Climbing Chicago Center
Sat 09:22:47 PM 40.7581 -87.6653 174° South 427 491 32,400 1,623 Climbing Chicago Center
Sat 09:23:48 PM 40.6128 -87.6458 174° South 437 503 34,000 1,659 Climbing Chicago Center
Sat 09:24:50 PM 40.4889 -87.6283 174° South 444 511 35,800 1,463 Climbing Chicago Center
Sat 09:25:51 PM 40.3681 -87.6131 174° South 439 505 37,000 590 Climbing Chicago Center
Sat 09:26:52 PM 40.2467 -87.5611 162° South 461 531 37,000  Level Chicago Center
Sat 09:27:53 PM 40.1178 -87.4797 154° Southeast 475 547 37,000 590 Level Indianapolis Center
Sat 09:28:54 PM 39.9961 -87.4039 154° Southeast 481 554 38,200 1,279 Climbing Indianapolis Center
Sat 09:29:55 PM 39.8764 -87.3253 153° Southeast 484 557 39,600 1,180 Climbing Indianapolis Center
Sat 09:30:56 PM 39.7569 -87.2442 152° Southeast 484 557 40,600 689 Climbing Indianapolis Center
Sat 09:31:57 PM 39.6381 -87.1642 153° Southeast 484 557 41,000 197 Climbing Indianapolis Center
Sat 09:32:58 PM 39.5189 -87.0850 153° Southeast 484 557 41,000  Level Indianapolis Center
Sat 09:33:59 PM 39.3997 -87.0056 153° Southeast 484 557 41,000  Level Indianapolis Center
Sat 09:35:00 PM 39.2814 -86.9292 153° Southeast 484 557 41,000  Level Indianapolis Center
Sat 09:36:01 PM 39.1628 -86.8503 153° Southeast 484 557 41,000  Level Indianapolis Center
Sat 09:37:02 PM 39.0261 -86.7572 152° Southeast 484 557 41,000  Level Indianapolis Center
Sat 09:38:04 PM 38.9086 -86.6775 152° Southeast 480 552 41,000  Level Indianapolis Center
Sat 09:39:05 PM 38.7903 -86.5981 152° Southeast 479 551 41,000  Level Indianapolis Center
Sat 09:40:06 PM 38.6722 -86.5194 153° Southeast 477 549 41,000  Level Indianapolis Center
Sat 09:41:07 PM 38.5533 -86.4394 152° Southeast 477 549 41,000  Level Indianapolis Center
Sat 09:42:08 PM 38.4322 -86.3592 153° Southeast 480 552 41,000  Level Indianapolis Center
Sat 09:43:09 PM 38.3119 -86.2786 152° Southeast 481 554 41,000  Level Indianapolis Center
Sat 09:44:10 PM 38.1908 -86.1981 152° Southeast 482 555 41,000  Level Indianapolis Center
Sat 09:45:11 PM 38.0692 -86.1189 153° Southeast 485 558 41,000  Level Indianapolis Center
Sat 09:46:13 PM 37.9492 -86.0383 152° Southeast 485 558 41,000  Level Indianapolis Center
Sat 09:47:14 PM 37.8294 -85.9611 153° Southeast 485 558 41,000  Level Indianapolis Center
Sat 09:48:15 PM 37.7092 -85.8828 153° Southeast 485 558 41,000  Level Indianapolis Center
Sat 09:49:16 PM 37.5889 -85.8056 153° Southeast 484 557 41,000  Level Indianapolis Center
Sat 09:50:17 PM 37.4697 -85.7272 152° Southeast 484 557 41,000  Level Indianapolis Center
Sat 09:51:18 PM 37.3503 -85.6489 152° Southeast 484 557 41,000  Level Indianapolis Center
Sat 09:52:19 PM 37.2136 -85.5633 153° Southeast 483 556 41,000  Level Indianapolis Center
Sat 09:53:20 PM 37.1008 -85.4906 153° Southeast 480 552 41,000  Level Indianapolis Center
Sat 09:54:21 PM 36.9889 -85.4200 153° Southeast 477 549 41,000  Level Indianapolis Center
Sat 09:55:22 PM 36.8456 -85.3272 153° Southeast 481 554 41,000  Level Indianapolis Center
Sat 09:56:23 PM 36.7242 -85.2525 154° Southeast 482 555 41,000  Level Indianapolis Center
Sat 09:57:24 PM 36.6031 -85.1806 155° Southeast 482 555 41,000  Level Indianapolis Center
Sat 09:58:25 PM 36.4764 -85.1456 167° South 470 541 41,000  Level Indianapolis Center
Sat 09:59:26 PM 36.3506 -85.1144 169° South 466 536 41,000  Level Indianapolis Center
Sat 10:00:27 PM 36.2242 -85.0653 163° South 476 548 41,000  Level Indianapolis Center
Sat 10:01:28 PM 36.1022 -85.0025 157° South 480 552 41,000  Level Indianapolis Center
Sat 10:02:29 PM 35.9789 -84.9400 158° South 479 551 41,000  Level Indianapolis Center
Sat 10:03:30 PM 35.8525 -84.8764 158° South 479 551 41,000  Level Indianapolis Center
Sat 10:04:10 PM 35.7636 -84.8322 158° South 478 550 41,000  Level Atlanta Center
Sat 10:05:10 PM 35.6389 -84.7722 159° South 473 544 41,000  Level Atlanta Center
Sat 10:06:10 PM 35.5203 -84.7125 158° South 473 544 41,000  Level Atlanta Center
Sat 10:07:10 PM 35.3997 -84.6528 158° South 473 544 41,000  Level Atlanta Center
Sat 10:08:10 PM 35.2769 -84.5908 158° South 473 544 41,000  Level Atlanta Center
Sat 10:09:10 PM 35.1561 -84.5317 158° South 473 544 41,000  Level Atlanta Center
Sat 10:10:10 PM 35.0353 -84.4725 158° South 473 544 41,000  Level Atlanta Center
Sat 10:11:10 PM 34.9394 -84.4239 157° South 473 544 41,000  Level Atlanta Center
Sat 10:12:10 PM 34.8122 -84.3600 158° South 463 533 41,000  Level Atlanta Center
Sat 10:13:10 PM 34.6914 -84.3017 158° South 463 533 41,000  Level Atlanta Center
Sat 10:14:10 PM 34.5706 -84.2431 158° South 469 540 41,000  Level Atlanta Center
Sat 10:15:10 PM 34.4369 -84.1772 158° South 469 540 41,000  Level Atlanta Center
Sat 10:16:10 PM 34.3181 -84.1167 157° South 469 540 41,000  Level Atlanta Center
Sat 10:17:10 PM 34.1950 -84.0589 159° South 475 547 41,000  Level Atlanta Center
Sat 10:18:10 PM 34.0719 -84.0011 159° South 475 547 41,000  Level Atlanta Center
Sat 10:19:10 PM 33.9486 -83.9436 159° South 475 547 41,000  Level Atlanta Center
Sat 10:20:10 PM 33.8400 -83.8911 158° South 475 547 41,000  Level Atlanta Center
Sat 10:21:10 PM 33.7147 -83.8339 159° South 476 548 41,000  Level Atlanta Center
Sat 10:22:10 PM 33.5936 -83.7769 159° South 476 548 41,000  Level Atlanta Center
Sat 10:23:10 PM 33.4703 -83.7200 159° South 471 542 41,000  Level Atlanta Center
Sat 10:24:10 PM 33.3492 -83.6608 158° South 471 542 41,000  Level Atlanta Center
Sat 10:25:10 PM 33.2258 -83.6042 159° South 476 548 41,000  Level Atlanta Center
Sat 10:26:10 PM 33.0919 -83.5431 159° South 476 548 41,000  Level Atlanta Center
Sat 10:27:10 PM 32.9872 -83.4939 159° South 469 540 41,000  Level Atlanta Center
Sat 10:28:10 PM 32.8681 -83.4378 158° South 469 540 41,000  Level Atlanta Center
Sat 10:30:30 PM 32.5875 -83.3019 158° South 469 540 41,000 -390 Level Jacksonville Center
Sat 10:31:30 PM 32.4667 -83.2472 159° South 469 540 39,700 -1,900 Descending Jacksonville Center
Sat 10:32:30 PM 32.3436 -83.1900 159° South 469 540 37,200 -2,700 Descending Jacksonville Center
Sat 10:33:30 PM 32.2122 -83.1308 159° South 469 540 34,300 -3,000 Descending Jacksonville Center
Sat 10:34:30 PM 32.0869 -83.0739 159° South 469 540 31,200 -2,800 Descending Jacksonville Center
Sat 10:35:30 PM 31.9661 -83.0175 158° South 469 540 28,700 -2,450 Descending Jacksonville Center
Sat 10:36:30 PM 31.8492 -82.9658 159° South 464 534 26,300 -2,350 Descending Jacksonville Center
Sat 10:37:30 PM 31.7344 -82.9072 157° South 459 528 24,000 -1,300 Descending Jacksonville Center
Sat 10:38:30 PM 31.6383 -82.8144 141° Southeast 443 510 23,700 -500 Descending Jacksonville Center
Sat 10:39:30 PM 31.5400 -82.7169 140° Southeast 449 517 23,000 -350 Descending Jacksonville Center
Sat 10:40:30 PM 31.4481 -82.6197 138° Southeast 449 517 23,000 -800 Level Jacksonville Center
Sat 10:41:30 PM 31.3558 -82.5447 145° Southeast 449 517 21,400 -2,328 Descending Jacksonville Center
Sat 10:42:26 PM 31.2492 -82.4528 144° Southeast 457 526 18,500 -2,800 Descending Jacksonville Center
Sat 10:42:30 PM 31.2533 -82.4575 316° Northwest 449 517 18,600 -3,281 Climbing Jacksonville Center
Sat 10:43:30 PM 31.1569 -82.3778 145° Southeast 443 510 15,000 -3,882 Descending Jacksonville Center
Sat 10:43:38 PM 31.1361 -82.3561 138° Southeast 418 481 14,200 -2,700 Descending Jacksonville Center
Sat 10:44:30 PM 31.0689 -82.3008 145° Southeast 421 484 12,300 -2,262 Descending Jacksonville Center
Sat 10:44:39 PM 31.0500 -82.2814 139° Southeast 375 432 11,900 -1,629 Descending Jacksonville Center
Sat 10:45:40 PM 30.9683 -82.2167 146° Southeast 343 395 10,400 -1,135 Descending Jacksonville Center
Sat 10:46:30 PM 30.9200 -82.1661 138° Southeast 352 405 9,800 -984 Descending Jacksonville Center
Sat 10:46:41 PM 30.9033 -82.1517 143° Southeast 293 337 9,400 -1,600 Descending Jacksonville Center
Sat 10:47:30 PM 30.8569 -82.1011 137° Southeast 319 367 8,200 -1,600 Descending Jacksonville Center
Sat 10:47:41 PM 30.8403 -82.0797 132° Southeast 293 337 7,800 -1,500 Descending Jacksonville Center
Sat 10:48:30 PM 30.7981 -82.0389 140° Southeast 300 345 6,700 -1,475 Descending Jacksonville Center
Sat 10:48:42 PM 30.7792 -82.0197 139° Southeast 284 327 6,300 -1,200 Descending Jacksonville Center
Sat 10:49:30 PM 30.7392 -81.9789 139° Southeast 289 333 5,500 -1,180 Descending Jacksonville Center
Sat 10:49:43 PM 30.7244 -81.9622 136° Southeast 272 313 5,100 -1,300 Descending Jacksonville Center
Sat 10:50:30 PM 30.6847 -81.9239 140° Southeast 278 320 4,200 -1,200 Descending Jacksonville Center
Sat 10:50:43 PM 30.6697 -81.9047 132° Southeast 258 297 3,900 -1,000 Descending Jacksonville Center
Sat 10:51:30 PM 30.6342 -81.8689 139° Southeast 261 300 3,200 -885 Descending Jacksonville Center
Sat 10:51:44 PM 30.6192 -81.8522 136° Southeast 240 276 3,000 -815 Descending Jacksonville Center
Sat 10:52:51 PM 30.5689 -81.8019 139° Southeast 189 217 2,100 -787 Descending Jacksonville Center
Sat 10:53:46 PM 30.5372 -81.7686 138° Southeast 157 181 1,400 -678 Descending Jacksonville Center
Sat 10:54:46 PM 30.5161 -81.7375 128° Southeast 113 130 800 -595 Descending Jacksonville Center
Sat 10:55:47 PM 30.4950 -81.7114 133° Southeast 116 133 200 -590 Descending Jacksonville Center
Sat 10:57:00 PM 30.4833 -81.6833 115° Southeast  Level FlightAware Approximate
Sat 11:04:00 PM 30.4941 -81.6878 115° Southeast  Level Estimated

Login

Don't have an account? Register now (free) for customized features, flight alerts, and more!